ENST/SSJ METAR and TAF weather

Enter ICAO airport designator
Station Type Date Time Source
ENST METAR 2021/04/12 03:50 UTC NOAA

ENST 120350Z 07007KT 9999 FEW008 SCT016TCU BKN030 00/M01 Q1023 RMK WIND 300FT 06010KT


Station Type Date Time Source
ENST Decoded METAR 2021/04/12 03:50 UTC NOAA

Sandnessjoen / Stokka, Norway (ENST) 65-58N 012-28E 17M
Apr 11, 2021 - 11:50 PM EDT / 2021.04.12 0350 UTC
Wind: from the ENE (070 degrees) at 8 MPH (7 KT):0
Visibility: greater than 7 mile(s):0
Sky conditions: mostly cloudy
Weather: Towering cumulus clouds observed
Temperature: 32 F (0 C)
Windchill: 24 F (-4 C):1
Dew Point: 30 F (-1 C)
Relative Humidity: 92%
Pressure (altimeter): 30.21 in. Hg (1023 hPa)
ob: ENST 120350Z 07007KT 9999 FEW008 SCT016TCU BKN030 00/M01 Q1023 RMK WIND 300FT 06010KT
cycle: 4

Station Type Date Time Source
ENST TAF UTC NOAA

Error!

Example: see airport list